createdAt,value
2017-11-09T00:00:22.735Z,92.88
2017-11-09T00:02:51.893Z,94.37
2017-11-09T00:05:26.341Z,94.39
2017-11-09T00:07:54.624Z,93.22
2017-11-09T00:10:23.977Z,93.70
2017-11-09T00:12:52.280Z,93.75
2017-11-09T00:15:20.552Z,92.20
2017-11-09T00:17:49.610Z,91.37
2017-11-09T00:20:17.893Z,91.92
2017-11-09T00:22:46.206Z,92.44
2017-11-09T00:25:14.503Z,91.44
2017-11-09T00:27:43.769Z,91.64
2017-11-09T00:30:12.066Z,91.24
2017-11-09T00:32:40.350Z,90.72
2017-11-09T00:35:08.642Z,90.65
2017-11-09T00:37:36.927Z,89.98
2017-11-09T00:40:05.211Z,89.38
2017-11-09T00:42:33.498Z,89.47
2017-11-09T00:45:02.679Z,89.24
2017-11-09T00:47:30.978Z,89.62
2017-11-09T00:49:59.501Z,89.69
2017-11-09T00:52:27.817Z,90.11
2017-11-09T00:54:56.100Z,91.07
2017-11-09T00:57:24.377Z,91.40
2017-11-09T00:59:52.662Z,91.06
2017-11-09T01:02:20.985Z,92.55
2017-11-09T01:04:49.274Z,93.09
2017-11-09T01:07:17.570Z,93.14
2017-11-09T01:09:45.857Z,92.57
2017-11-09T01:12:14.157Z,92.30
2017-11-09T01:14:43.225Z,91.32
2017-11-09T01:17:12.397Z,91.67
2017-11-09T01:19:41.446Z,91.38
2017-11-09T01:22:10.525Z,91.89
2017-11-09T01:24:38.827Z,91.75
2017-11-09T01:27:07.886Z,91.72
2017-11-09T01:29:36.150Z,91.85
2017-11-09T01:32:04.432Z,92.32
2017-11-09T01:34:32.716Z,92.66
2017-11-09T01:37:01.010Z,92.99
2017-11-09T01:39:30.074Z,92.76
2017-11-09T01:41:58.357Z,93.42
2017-11-09T01:44:27.416Z,93.17
2017-11-09T01:46:55.715Z,94.39
2017-11-09T01:49:24.021Z,93.79
2017-11-09T01:51:52.316Z,92.31
2017-11-09T01:54:20.618Z,91.43
2017-11-09T01:56:48.910Z,91.21
2017-11-09T01:59:17.206Z,90.76
2017-11-09T02:01:45.489Z,90.34
2017-11-09T02:04:13.790Z,89.78
2017-11-09T02:06:42.841Z,89.54
2017-11-09T02:09:11.143Z,89.05
2017-11-09T02:11:39.460Z,88.51
2017-11-09T02:14:07.752Z,88.53
2017-11-09T02:16:36.042Z,88.54
2017-11-09T02:19:04.354Z,88.55
2017-11-09T02:21:32.656Z,88.22
2017-11-09T02:24:00.976Z,88.04
2017-11-09T02:26:29.456Z,87.79
2017-11-09T02:28:57.780Z,88.07
2017-11-09T02:31:26.102Z,87.52
2017-11-09T02:33:54.388Z,87.76
2017-11-09T02:36:23.467Z,87.80
2017-11-09T02:38:51.745Z,88.56
2017-11-09T02:41:20.029Z,88.21
2017-11-09T02:43:48.313Z,88.23
2017-11-09T02:46:17.383Z,87.72
2017-11-09T02:48:45.677Z,87.68
2017-11-09T02:51:13.980Z,87.50
2017-11-09T02:53:42.745Z,87.60
2017-11-09T02:56:11.034Z,87.68
2017-11-09T02:58:39.326Z,87.24
2017-11-09T03:01:07.870Z,87.85
2017-11-09T03:03:36.158Z,88.64
2017-11-09T03:06:04.445Z,88.71
2017-11-09T03:08:32.738Z,88.32
2017-11-09T03:11:01.041Z,88.03
2017-11-09T03:13:29.330Z,88.01
2017-11-09T03:15:57.625Z,88.34
2017-11-09T03:18:25.937Z,88.20
2017-11-09T03:20:54.228Z,88.27
2017-11-09T03:23:22.561Z,88.15
2017-11-09T03:25:50.842Z,88.22
2017-11-09T03:28:19.970Z,88.45
2017-11-09T03:30:48.259Z,88.04
2017-11-09T03:33:17.308Z,88.08
2017-11-09T03:35:45.590Z,88.42
2017-11-09T03:38:13.887Z,89.40
2017-11-09T03:40:42.170Z,88.87
2017-11-09T03:43:10.461Z,88.37
2017-11-09T03:45:39.514Z,87.93
2017-11-09T03:48:07.804Z,88.06
2017-11-09T03:50:36.093Z,88.65
2017-11-09T03:53:04.385Z,89.28
2017-11-09T03:55:32.685Z,89.36
2017-11-09T03:58:00.977Z,89.33
2017-11-09T04:00:29.290Z,89.30
2017-11-09T04:02:57.599Z,89.95
2017-11-09T04:05:25.889Z,90.34
2017-11-09T04:07:54.174Z,90.39
2017-11-09T04:10:22.525Z,91.78
2017-11-09T04:12:50.806Z,91.74
2017-11-09T04:15:19.144Z,92.98
2017-11-09T04:17:47.425Z,91.94
2017-11-09T04:20:15.719Z,91.21
2017-11-09T04:22:44.009Z,90.80
2017-11-09T04:25:12.921Z,90.45
2017-11-09T04:27:41.201Z,90.41
2017-11-09T04:30:09.486Z,89.62
2017-11-09T04:32:38.753Z,89.50
2017-11-09T04:35:07.812Z,88.95
2017-11-09T04:37:36.105Z,89.32
2017-11-09T04:40:04.385Z,89.46
2017-11-09T04:42:33.099Z,89.21
2017-11-09T04:45:02.136Z,89.40
2017-11-09T04:47:30.421Z,89.62
2017-11-09T04:49:58.718Z,89.96
2017-11-09T04:52:27.005Z,89.33
2017-11-09T04:54:55.293Z,88.79
2017-11-09T04:57:24.346Z,88.74
2017-11-09T04:59:52.626Z,89.50
2017-11-09T05:02:20.925Z,89.50
2017-11-09T05:04:50.065Z,91.75
2017-11-09T05:07:18.354Z,92.44
2017-11-09T05:09:46.641Z,91.79
2017-11-09T05:12:14.938Z,91.03
2017-11-09T05:14:43.247Z,91.87
2017-11-09T05:17:12.295Z,91.54
2017-11-09T05:19:40.587Z,92.08
2017-11-09T05:22:08.884Z,92.50
2017-11-09T05:24:37.185Z,93.68
2017-11-09T05:27:05.472Z,93.94
2017-11-09T05:29:33.766Z,93.75
2017-11-09T05:32:02.049Z,92.62
2017-11-09T05:34:30.347Z,91.45
2017-11-09T05:36:58.648Z,90.56
2017-11-09T05:39:27.744Z,89.67
2017-11-09T05:41:56.794Z,89.22
2017-11-09T05:44:25.085Z,89.27
2017-11-09T05:46:53.373Z,89.37
2017-11-09T05:49:21.663Z,88.84
2017-11-09T05:51:49.956Z,89.17
2017-11-09T05:54:19.875Z,89.21
2017-11-09T05:56:49.084Z,89.04
2017-11-09T05:59:17.369Z,88.81
2017-11-09T06:01:45.656Z,88.49
2017-11-09T06:04:13.950Z,88.28
2017-11-09T06:06:42.263Z,87.80
2017-11-09T06:09:12.026Z,87.22
2017-11-09T06:11:40.314Z,87.28
2017-11-09T06:14:09.159Z,87.52
2017-11-09T06:16:38.169Z,87.51
2017-11-09T06:19:06.454Z,87.70
2017-11-09T06:21:34.724Z,87.09
2017-11-09T06:24:03.005Z,87.21
2017-11-09T06:26:31.279Z,87.29
2017-11-09T06:28:59.565Z,87.22
2017-11-09T06:31:27.849Z,87.25
2017-11-09T06:33:56.121Z,87.40
2017-11-09T06:36:24.396Z,87.47
2017-11-09T06:38:52.680Z,87.66
2017-11-09T06:41:20.960Z,88.12
2017-11-09T06:43:49.243Z,88.20
2017-11-09T06:46:17.529Z,88.48
2017-11-09T06:48:46.582Z,88.70
2017-11-09T06:51:14.866Z,87.95
2017-11-09T06:53:43.169Z,87.74
2017-11-09T06:56:11.463Z,87.79
2017-11-09T06:58:40.515Z,87.34
2017-11-09T07:01:08.841Z,86.83
2017-11-09T07:03:37.140Z,86.74
2017-11-09T07:06:05.430Z,86.87
2017-11-09T07:08:33.721Z,87.38
2017-11-09T07:11:02.013Z,90.01
2017-11-09T07:13:30.285Z,92.22
2017-11-09T07:16:00.194Z,90.53
2017-11-09T07:18:28.472Z,89.54
2017-11-09T07:20:56.757Z,89.16
2017-11-09T07:23:25.157Z,89.05
2017-11-09T07:25:53.482Z,88.78
2017-11-09T07:28:21.771Z,88.74
2017-11-09T07:30:50.056Z,89.01
2017-11-09T07:33:18.398Z,89.60
2017-11-09T07:35:46.682Z,89.07
2017-11-09T07:38:14.965Z,89.16
2017-11-09T07:40:44.237Z,89.28
2017-11-09T07:43:12.521Z,89.33
2017-11-09T07:45:40.804Z,89.51
2017-11-09T07:48:09.093Z,90.51
2017-11-09T07:50:37.386Z,92.39
2017-11-09T07:53:05.665Z,92.51
2017-11-09T07:55:33.954Z,92.46
2017-11-09T07:58:02.247Z,92.75
2017-11-09T08:00:31.315Z,93.21
2017-11-09T08:02:59.599Z,92.74
2017-11-09T08:05:27.893Z,91.99
2017-11-09T08:07:56.189Z,91.28
2017-11-09T08:10:25.236Z,91.08
2017-11-09T08:12:53.508Z,91.58
2017-11-09T08:15:21.799Z,90.93
2017-11-09T08:17:50.103Z,90.41
2017-11-09T08:20:18.390Z,90.15
2017-11-09T08:22:46.680Z,89.35
2017-11-09T08:25:19.986Z,89.15
2017-11-09T08:27:50.646Z,88.78
2017-11-09T08:30:19.426Z,88.82
2017-11-09T08:32:51.864Z,88.26
2017-11-09T08:35:20.153Z,89.18
2017-11-09T08:37:48.435Z,88.99
2017-11-09T08:40:17.421Z,89.80
2017-11-09T08:42:45.719Z,88.68
2017-11-09T08:45:14.002Z,87.69
2017-11-09T08:47:42.287Z,88.31
2017-11-09T08:50:10.607Z,87.85
2017-11-09T08:52:38.982Z,86.97
2017-11-09T08:55:08.036Z,86.31
2017-11-09T08:57:37.224Z,86.24
2017-11-09T09:00:05.510Z,86.19
2017-11-09T09:02:33.789Z,85.85
2017-11-09T09:05:02.076Z,87.12
2017-11-09T09:07:30.349Z,86.48
2017-11-09T09:09:58.638Z,88.25
2017-11-09T09:12:27.703Z,86.71
2017-11-09T09:14:56.033Z,85.58
2017-11-09T09:17:25.102Z,85.83
2017-11-09T09:19:53.386Z,85.46
2017-11-09T09:25:27.587Z,84.19
2017-11-09T09:27:58.165Z,84.30
2017-11-09T09:30:29.397Z,83.83
2017-11-09T09:33:05.151Z,83.29
2017-11-09T09:35:42.837Z,82.98
2017-11-09T09:38:18.134Z,83.95
2017-11-09T09:40:47.073Z,84.76
2017-11-09T09:43:15.554Z,83.66
2017-11-09T09:45:43.853Z,83.18
2017-11-09T09:48:12.140Z,84.31
2017-11-09T09:50:40.432Z,85.37
2017-11-09T09:53:08.717Z,84.59
2017-11-09T09:55:37.029Z,85.13
2017-11-09T09:58:06.093Z,85.11
2017-11-09T10:00:34.385Z,82.98
2017-11-09T10:03:02.697Z,83.06
2017-11-09T10:05:30.993Z,82.81
2017-11-09T10:07:59.282Z,82.86
2017-11-09T10:10:27.566Z,83.32
2017-11-09T10:12:55.862Z,82.79
2017-11-09T10:15:24.170Z,82.33
2017-11-09T10:17:52.461Z,82.96
2017-11-09T10:20:20.761Z,82.82
2017-11-09T10:22:49.062Z,83.11
2017-11-09T10:25:17.365Z,82.75
2017-11-09T10:27:46.421Z,82.28
2017-11-09T10:30:14.706Z,82.46
2017-11-09T10:32:42.993Z,83.51
2017-11-09T10:35:12.060Z,83.93
2017-11-09T10:37:40.397Z,83.19
2017-11-09T10:40:08.687Z,82.87
2017-11-09T10:42:36.981Z,83.43
2017-11-09T10:45:05.286Z,82.52
2017-11-09T10:47:33.615Z,83.01
2017-11-09T10:50:02.698Z,82.80
2017-11-09T10:52:31.035Z,81.87
2017-11-09T10:54:59.337Z,82.15
2017-11-09T10:57:27.637Z,81.35
2017-11-09T10:59:55.954Z,81.92
2017-11-09T11:02:24.232Z,80.81
2017-11-09T11:04:52.521Z,80.25
2017-11-09T11:07:20.809Z,80.06
2017-11-09T11:09:49.122Z,78.56
2017-11-09T11:12:17.426Z,79.30
2017-11-09T11:14:45.740Z,78.32
2017-11-09T11:17:14.045Z,76.84
2017-11-09T11:19:42.578Z,77.46
2017-11-09T11:22:10.883Z,76.84
2017-11-09T11:24:39.194Z,77.83
2017-11-09T11:27:07.497Z,76.64
2017-11-09T11:29:35.825Z,75.42
2017-11-09T11:32:04.126Z,75.10
2017-11-09T11:34:32.422Z,74.96
2017-11-09T11:37:00.747Z,75.82
2017-11-09T11:39:29.049Z,75.14
2017-11-09T11:41:57.337Z,72.23
2017-11-09T11:44:25.649Z,71.89
2017-11-09T11:46:53.952Z,71.17
2017-11-09T11:49:22.742Z,70.27
2017-11-09T11:51:51.037Z,68.18
2017-11-09T11:54:20.581Z,67.91
2017-11-09T11:56:48.876Z,67.80
2017-11-09T11:59:17.177Z,68.38
2017-11-09T12:01:45.465Z,69.08
2017-11-09T12:04:14.526Z,68.62
2017-11-09T12:06:43.394Z,69.99
2017-11-09T12:09:11.712Z,71.71
2017-11-09T12:11:41.577Z,72.46
2017-11-09T12:14:09.879Z,73.32
2017-11-09T12:16:38.195Z,74.74
2017-11-09T12:19:07.278Z,76.18
2017-11-09T12:21:35.597Z,76.99
2017-11-09T12:24:03.923Z,77.96
2017-11-09T12:26:32.251Z,76.03
2017-11-09T12:29:02.073Z,76.34
2017-11-09T12:31:30.382Z,77.54
2017-11-09T12:33:58.697Z,78.75
2017-11-09T12:36:27.005Z,78.84
2017-11-09T12:38:55.406Z,79.32
2017-11-09T12:41:24.502Z,79.96
2017-11-09T12:43:53.607Z,79.43
2017-11-09T12:46:21.900Z,79.80
2017-11-09T12:48:50.195Z,79.71
2017-11-09T12:51:20.339Z,80.12
2017-11-09T12:53:48.647Z,79.48
2017-11-09T12:56:16.915Z,80.02
2017-11-09T12:58:45.195Z,79.41
2017-11-09T13:01:13.474Z,79.39
2017-11-09T13:03:41.845Z,79.58
2017-11-09T13:06:10.153Z,78.03
2017-11-09T13:08:39.249Z,76.35
2017-11-09T13:11:07.555Z,76.68
2017-11-09T13:13:35.858Z,77.27
2017-11-09T13:16:04.153Z,77.52
2017-11-09T13:18:32.451Z,78.10
2017-11-09T13:21:00.750Z,78.41
2017-11-09T13:23:29.062Z,78.50
2017-11-09T13:25:57.368Z,78.74
2017-11-09T13:28:25.685Z,79.11
2017-11-09T13:30:53.990Z,79.14
2017-11-09T13:33:22.279Z,78.74
2017-11-09T13:35:50.583Z,79.21
2017-11-09T13:38:19.845Z,79.06
2017-11-09T13:40:48.702Z,79.04
2017-11-09T13:43:17.001Z,79.29
2017-11-09T13:45:45.305Z,78.83
2017-11-09T13:48:13.593Z,78.82
2017-11-09T13:50:41.934Z,78.62
2017-11-09T13:53:10.246Z,78.63
2017-11-09T13:55:38.522Z,78.84
2017-11-09T13:58:06.811Z,78.77
2017-11-09T14:00:35.399Z,79.64
2017-11-09T14:03:03.950Z,79.48
2017-11-09T14:05:32.517Z,79.31
2017-11-09T14:08:01.029Z,78.97
2017-11-09T14:10:30.261Z,78.60
2017-11-09T14:12:59.379Z,78.63
2017-11-09T14:15:27.697Z,78.64
2017-11-09T14:17:56.160Z,79.09
2017-11-09T14:20:24.463Z,78.92
2017-11-09T14:22:52.763Z,78.33
2017-11-09T14:25:21.072Z,78.41
2017-11-09T14:27:49.365Z,78.25
2017-11-09T14:30:17.998Z,78.28
2017-11-09T14:32:47.298Z,78.51
2017-11-09T14:35:16.371Z,78.54
2017-11-09T14:37:45.228Z,78.53
2017-11-09T14:40:13.533Z,78.60
2017-11-09T14:42:41.834Z,78.63
2017-11-09T14:45:10.141Z,79.18
2017-11-09T14:47:38.442Z,79.45
2017-11-09T14:50:06.754Z,79.60
2017-11-09T14:52:35.036Z,79.78
2017-11-09T14:55:03.973Z,79.64
2017-11-09T14:57:32.325Z,79.28
2017-11-09T15:00:01.446Z,79.24
2017-11-09T15:02:29.733Z,79.05
2017-11-09T15:04:58.059Z,79.29
2017-11-09T15:07:27.118Z,79.70
2017-11-09T15:09:55.417Z,80.08
2017-11-09T15:12:23.710Z,80.93
2017-11-09T15:14:52.001Z,81.19
2017-11-09T15:17:20.289Z,80.15
2017-11-09T15:19:48.574Z,79.40
2017-11-09T15:22:16.862Z,78.90
2017-11-09T15:24:47.076Z,79.00
2017-11-09T15:27:15.366Z,78.74
2017-11-09T15:29:43.662Z,78.79
2017-11-09T15:32:12.556Z,79.33
2017-11-09T15:34:40.850Z,79.37
2017-11-09T15:37:09.155Z,77.90
2017-11-09T15:39:37.449Z,79.01
2017-11-09T15:42:05.885Z,79.70
2017-11-09T15:44:35.006Z,79.33
2017-11-09T15:47:03.341Z,79.39
2017-11-09T15:49:31.625Z,79.35
2017-11-09T15:51:59.908Z,80.21
2017-11-09T15:54:28.197Z,80.16
2017-11-09T15:56:56.502Z,79.85
2017-11-09T15:59:24.808Z,79.83
2017-11-09T16:01:53.093Z,80.13
2017-11-09T16:04:21.373Z,80.54
2017-11-09T16:06:49.661Z,80.67
2017-11-09T16:09:18.720Z,81.16
2017-11-09T16:11:47.011Z,80.89
2017-11-09T16:14:15.305Z,81.02
2017-11-09T16:16:43.598Z,80.21
2017-11-09T16:19:15.453Z,80.11
2017-11-09T16:21:43.754Z,80.10
2017-11-09T16:24:12.039Z,80.41
2017-11-09T16:26:40.734Z,80.82
2017-11-09T16:29:09.024Z,80.63
2017-11-09T16:31:38.234Z,80.76
2017-11-09T16:34:06.545Z,81.31
2017-11-09T16:36:34.845Z,81.20
2017-11-09T16:39:03.127Z,81.22
2017-11-09T16:41:31.410Z,81.52
2017-11-09T16:43:59.734Z,81.90
2017-11-09T16:46:28.016Z,81.94
2017-11-09T16:48:57.073Z,82.21
2017-11-09T16:51:25.375Z,81.79
2017-11-09T16:53:54.459Z,82.01
2017-11-09T16:56:25.529Z,82.16
2017-11-09T16:58:54.577Z,82.33
2017-11-09T17:01:22.868Z,82.38
2017-11-09T17:03:51.170Z,82.80
2017-11-09T17:06:19.960Z,83.51
2017-11-09T17:08:48.252Z,84.23
2017-11-09T17:11:19.081Z,83.94
2017-11-09T17:13:47.370Z,84.08
2017-11-09T17:16:16.422Z,84.35
2017-11-09T17:18:44.726Z,83.78
2017-11-09T17:21:13.018Z,83.41
2017-11-09T17:23:41.321Z,83.89
2017-11-09T17:26:09.610Z,83.92
2017-11-09T17:28:37.914Z,84.65
2017-11-09T17:31:06.203Z,84.73
2017-11-09T17:33:34.493Z,84.92
2017-11-09T17:36:02.777Z,84.79
2017-11-09T17:38:31.061Z,85.05
2017-11-09T17:40:59.341Z,85.34
2017-11-09T17:43:27.640Z,85.76
2017-11-09T17:45:55.977Z,85.75
2017-11-09T17:48:24.269Z,85.29
2017-11-09T17:50:52.561Z,85.68
2017-11-09T17:53:22.777Z,86.06
2017-11-09T17:55:51.041Z,85.82
2017-11-09T17:58:19.304Z,85.80
2017-11-09T18:00:47.613Z,86.06
2017-11-09T18:03:15.913Z,86.27
2017-11-09T18:05:44.213Z,86.39
2017-11-09T18:08:12.505Z,86.06
2017-11-09T18:10:41.558Z,86.17
2017-11-09T18:13:09.863Z,86.57
2017-11-09T18:15:38.793Z,86.07
2017-11-09T18:18:07.101Z,85.95
2017-11-09T18:20:35.393Z,86.20
2017-11-09T18:23:03.706Z,87.01
2017-11-09T18:25:32.816Z,87.07
2017-11-09T18:28:01.393Z,87.29
2017-11-09T18:30:29.808Z,87.55
2017-11-09T18:32:58.419Z,87.20
2017-11-09T18:35:27.497Z,87.60
2017-11-09T18:37:57.054Z,87.72
2017-11-09T18:40:25.350Z,89.05
2017-11-09T18:42:53.637Z,88.86
2017-11-09T18:45:21.925Z,89.13
2017-11-09T18:47:50.201Z,89.01
2017-11-09T18:50:19.424Z,89.11
2017-11-09T18:52:48.535Z,89.08
2017-11-09T18:55:18.870Z,89.13
2017-11-09T18:57:47.788Z,89.65
2017-11-09T19:00:16.247Z,89.19
2017-11-09T19:02:44.788Z,88.87
2017-11-09T19:05:14.238Z,88.95
2017-11-09T19:07:44.243Z,88.60
2017-11-09T19:10:13.165Z,89.35
2017-11-09T19:12:42.026Z,89.94
2017-11-09T19:15:12.219Z,89.05
2017-11-09T19:17:41.945Z,88.80
2017-11-09T19:20:10.885Z,88.76
2017-11-09T19:22:40.225Z,88.12
2017-11-09T19:25:09.887Z,87.32
2017-11-09T19:27:39.484Z,87.53
2017-11-09T19:30:08.691Z,87.33
2017-11-09T19:32:44.152Z,86.78
2017-11-09T19:35:14.184Z,87.24
2017-11-09T19:37:44.022Z,87.40
2017-11-09T19:40:14.085Z,87.39
2017-11-09T19:42:43.994Z,87.03
2017-11-09T19:45:14.513Z,86.82
2017-11-09T19:47:44.910Z,86.98
2017-11-09T19:50:14.969Z,86.86
2017-11-09T19:52:45.376Z,87.47
2017-11-09T19:55:15.457Z,87.30
2017-11-09T19:57:45.260Z,87.10
2017-11-09T20:00:15.192Z,87.10
2017-11-09T20:02:45.038Z,87.54
2017-11-09T20:05:15.704Z,87.69
2017-11-09T20:07:45.654Z,87.84
2017-11-09T20:10:15.460Z,88.47
2017-11-09T20:12:45.322Z,89.01
2017-11-09T20:15:15.310Z,89.31
2017-11-09T20:17:45.190Z,89.62
2017-11-09T20:20:15.185Z,89.70
2017-11-09T20:22:45.000Z,90.08
2017-11-09T20:25:14.836Z,90.27
2017-11-09T20:27:44.719Z,91.21
2017-11-09T20:30:14.542Z,91.09
2017-11-09T20:32:44.434Z,91.48
2017-11-09T20:35:14.358Z,91.28
2017-11-09T20:37:44.180Z,90.99
2017-11-09T20:40:14.279Z,90.84
2017-11-09T20:42:44.162Z,91.22
2017-11-09T20:45:14.158Z,90.60
2017-11-09T20:47:43.968Z,90.62
2017-11-09T20:50:16.739Z,91.15
2017-11-09T20:52:46.523Z,90.80
2017-11-09T20:55:16.409Z,91.21
2017-11-09T20:57:46.959Z,90.68
2017-11-09T21:00:17.668Z,90.96
2017-11-09T21:02:47.396Z,90.91
2017-11-09T21:05:17.916Z,90.91
2017-11-09T21:07:48.452Z,91.04
2017-11-09T21:10:18.274Z,91.76
2017-11-09T21:12:48.315Z,91.39
2017-11-09T21:15:18.078Z,91.96
2017-11-09T21:17:47.723Z,92.14
2017-11-09T21:20:17.394Z,92.22
2017-11-09T21:22:47.156Z,92.09
2017-11-09T21:25:16.706Z,92.47
2017-11-09T21:27:46.262Z,92.27
2017-11-09T21:30:15.841Z,92.61
2017-11-09T21:32:46.288Z,92.19
2017-11-09T21:35:15.667Z,92.58
2017-11-09T21:37:45.666Z,92.26
2017-11-09T21:40:14.326Z,92.18
2017-11-09T21:42:42.701Z,92.30
2017-11-09T21:45:11.073Z,92.22
2017-11-09T21:47:39.761Z,91.95
2017-11-09T21:50:10.404Z,92.28
2017-11-09T21:52:38.742Z,92.59
2017-11-09T21:55:07.035Z,92.18
2017-11-09T21:57:35.320Z,93.11
2017-11-09T22:00:04.973Z,92.46
2017-11-09T22:02:33.265Z,92.27
2017-11-09T22:05:01.569Z,92.19
2017-11-09T22:07:29.857Z,92.72
2017-11-09T22:09:58.722Z,92.27
2017-11-09T22:12:27.037Z,92.27
2017-11-09T22:14:55.338Z,92.41
2017-11-09T22:17:24.389Z,93.26
2017-11-09T22:19:52.677Z,93.37
2017-11-09T22:22:20.975Z,92.77
2017-11-09T22:24:49.261Z,92.42
2017-11-09T22:27:17.567Z,92.14
2017-11-09T22:29:45.842Z,92.55
2017-11-09T22:32:14.116Z,91.43
2017-11-09T22:34:42.402Z,90.99
2017-11-09T22:37:10.687Z,91.22
2017-11-09T22:39:38.970Z,91.09
2017-11-09T22:42:07.257Z,91.59
2017-11-09T22:44:35.541Z,91.46
2017-11-09T22:47:03.847Z,91.36
2017-11-09T22:49:32.133Z,91.40
2017-11-09T22:52:01.526Z,91.14
2017-11-09T22:54:29.866Z,90.53
2017-11-09T22:56:58.161Z,90.22
2017-11-09T22:59:26.444Z,90.66
2017-11-09T23:01:55.488Z,90.81
2017-11-09T23:04:23.790Z,90.75
2017-11-09T23:06:52.070Z,90.95
2017-11-09T23:09:20.340Z,90.91
2017-11-09T23:11:48.629Z,90.83
2017-11-09T23:14:16.917Z,90.99
2017-11-09T23:16:46.357Z,91.28
2017-11-09T23:19:14.638Z,91.63
2017-11-09T23:21:42.925Z,91.89
2017-11-09T23:24:11.208Z,92.08
2017-11-09T23:26:40.712Z,93.19
2017-11-09T23:29:09.030Z,92.66
2017-11-09T23:31:37.313Z,92.71
2017-11-09T23:34:06.829Z,93.21
2017-11-09T23:36:35.896Z,93.32
2017-11-09T23:39:04.188Z,92.71
2017-11-09T23:41:33.270Z,92.68
2017-11-09T23:44:01.557Z,92.10
2017-11-09T23:46:30.621Z,92.01
2017-11-09T23:48:58.904Z,91.92
2017-11-09T23:51:27.224Z,91.49
2017-11-09T23:53:55.511Z,91.18
2017-11-09T23:56:23.802Z,90.22
2017-11-09T23:58:52.092Z,90.21
